sensor_id;sensor_type;location;lat;lon;timestamp;P1;durP1;ratioP1;P2;durP2;ratioP2
44228;SDS011;29904;51.058;5.378;2022-09-27T00:01:13;4.90;;;1.00;;
44228;SDS011;29904;51.058;5.378;2022-09-27T00:03:39;3.50;;;0.85;;
44228;SDS011;29904;51.058;5.378;2022-09-27T00:08:42;4.93;;;1.00;;
44228;SDS011;29904;51.058;5.378;2022-09-27T00:11:14;3.73;;;1.20;;
44228;SDS011;29904;51.058;5.378;2022-09-27T00:13:47;4.15;;;1.00;;
44228;SDS011;29904;51.058;5.378;2022-09-27T00:16:12;4.03;;;1.20;;
44228;SDS011;29904;51.058;5.378;2022-09-27T00:18:38;6.00;;;1.35;;
44228;SDS011;29904;51.058;5.378;2022-09-27T00:21:05;3.65;;;1.00;;
44228;SDS011;29904;51.058;5.378;2022-09-27T00:23:31;6.28;;;1.20;;
44228;SDS011;29904;51.058;5.378;2022-09-27T00:26:00;3.97;;;1.00;;
44228;SDS011;29904;51.058;5.378;2022-09-27T00:28:26;3.60;;;1.00;;
44228;SDS011;29904;51.058;5.378;2022-09-27T00:30:52;4.35;;;1.20;;
44228;SDS011;29904;51.058;5.378;2022-09-27T00:33:18;4.93;;;1.10;;
44228;SDS011;29904;51.058;5.378;2022-09-27T00:35:44;5.17;;;1.27;;
44228;SDS011;29904;51.058;5.378;2022-09-27T00:38:09;6.20;;;1.27;;
44228;SDS011;29904;51.058;5.378;2022-09-27T00:40:36;5.63;;;1.25;;
44228;SDS011;29904;51.058;5.378;2022-09-27T00:43:04;4.43;;;1.37;;
44228;SDS011;29904;51.058;5.378;2022-09-27T00:45:57;3.25;;;1.10;;
44228;SDS011;29904;51.058;5.378;2022-09-27T00:48:28;3.28;;;1.20;;
44228;SDS011;29904;51.058;5.378;2022-09-27T00:50:58;5.88;;;1.30;;
44228;SDS011;29904;51.058;5.378;2022-09-27T00:53:28;2.88;;;1.30;;
44228;SDS011;29904;51.058;5.378;2022-09-27T00:55:59;3.20;;;0.98;;
44228;SDS011;29904;51.058;5.378;2022-09-27T00:58:29;3.20;;;0.95;;
44228;SDS011;29904;51.058;5.378;2022-09-27T01:01:00;3.15;;;1.15;;
44228;SDS011;29904;51.058;5.378;2022-09-27T01:03:35;4.57;;;0.82;;
44228;SDS011;29904;51.058;5.378;2022-09-27T01:06:06;4.13;;;0.93;;
44228;SDS011;29904;51.058;5.378;2022-09-27T01:08:34;4.63;;;0.95;;
44228;SDS011;29904;51.058;5.378;2022-09-27T01:11:04;4.22;;;1.08;;
44228;SDS011;29904;51.058;5.378;2022-09-27T01:13:55;3.38;;;0.90;;
44228;SDS011;29904;51.058;5.378;2022-09-27T01:16:29;3.47;;;0.70;;
44228;SDS011;29904;51.058;5.378;2022-09-27T01:31:00;2.97;;;0.60;;
44228;SDS011;29904;51.058;5.378;2022-09-27T01:33:48;4.22;;;0.88;;
44228;SDS011;29904;51.058;5.378;2022-09-27T01:39:55;4.43;;;0.90;;
44228;SDS011;29904;51.058;5.378;2022-09-27T01:45:13;1.95;;;0.70;;
44228;SDS011;29904;51.058;5.378;2022-09-27T01:47:52;4.78;;;0.70;;
44228;SDS011;29904;51.058;5.378;2022-09-27T01:50:23;2.28;;;0.60;;
44228;SDS011;29904;51.058;5.378;2022-09-27T01:53:04;2.90;;;0.50;;
44228;SDS011;29904;51.058;5.378;2022-09-27T01:55:40;3.57;;;0.50;;
44228;SDS011;29904;51.058;5.378;2022-09-27T01:58:10;4.40;;;0.50;;
44228;SDS011;29904;51.058;5.378;2022-09-27T02:00:36;3.88;;;0.57;;
44228;SDS011;29904;51.058;5.378;2022-09-27T02:03:13;1.88;;;0.60;;
44228;SDS011;29904;51.058;5.378;2022-09-27T02:05:45;3.55;;;0.70;;
44228;SDS011;29904;51.058;5.378;2022-09-27T02:10:53;2.65;;;0.60;;
44228;SDS011;29904;51.058;5.378;2022-09-27T02:16:39;3.22;;;0.63;;
44228;SDS011;29904;51.058;5.378;2022-09-27T02:19:06;2.80;;;0.50;;
44228;SDS011;29904;51.058;5.378;2022-09-27T02:24:44;3.17;;;0.50;;
44228;SDS011;29904;51.058;5.378;2022-09-27T02:27:16;2.25;;;0.32;;
44228;SDS011;29904;51.058;5.378;2022-09-27T02:29:48;2.08;;;0.40;;
44228;SDS011;29904;51.058;5.378;2022-09-27T02:32:22;2.15;;;0.40;;
44228;SDS011;29904;51.058;5.378;2022-09-27T02:34:48;2.75;;;0.40;;
44228;SDS011;29904;51.058;5.378;2022-09-27T02:37:16;1.98;;;0.50;;
44228;SDS011;29904;51.058;5.378;2022-09-27T02:39:42;4.05;;;0.50;;
44228;SDS011;29904;51.058;5.378;2022-09-27T02:42:10;2.33;;;0.43;;
44228;SDS011;29904;51.058;5.378;2022-09-27T02:44:35;2.60;;;0.50;;
44228;SDS011;29904;51.058;5.378;2022-09-27T02:47:49;1.93;;;0.40;;
44228;SDS011;29904;51.058;5.378;2022-09-27T03:00:47;2.13;;;0.40;;
44228;SDS011;29904;51.058;5.378;2022-09-27T03:06:12;3.25;;;0.50;;
44228;SDS011;29904;51.058;5.378;2022-09-27T03:08:42;4.22;;;0.60;;
44228;SDS011;29904;51.058;5.378;2022-09-27T03:11:08;2.80;;;0.50;;
44228;SDS011;29904;51.058;5.378;2022-09-27T03:13:34;2.97;;;0.60;;
44228;SDS011;29904;51.058;5.378;2022-09-27T03:16:02;3.00;;;0.80;;
44228;SDS011;29904;51.058;5.378;2022-09-27T03:18:30;3.00;;;0.88;;
44228;SDS011;29904;51.058;5.378;2022-09-27T03:20:57;3.00;;;0.60;;
44228;SDS011;29904;51.058;5.378;2022-09-27T03:23:23;3.40;;;0.80;;
44228;SDS011;29904;51.058;5.378;2022-09-27T03:25:49;2.77;;;0.80;;
44228;SDS011;29904;51.058;5.378;2022-09-27T03:28:15;2.50;;;0.80;;
44228;SDS011;29904;51.058;5.378;2022-09-27T03:30:43;4.10;;;0.90;;
44228;SDS011;29904;51.058;5.378;2022-09-27T03:33:09;2.10;;;0.80;;
44228;SDS011;29904;51.058;5.378;2022-09-27T03:35:37;2.60;;;0.90;;
44228;SDS011;29904;51.058;5.378;2022-09-27T03:38:03;4.60;;;1.13;;
44228;SDS011;29904;51.058;5.378;2022-09-27T03:40:31;3.80;;;1.08;;
44228;SDS011;29904;51.058;5.378;2022-09-27T03:43:00;2.85;;;1.10;;
44228;SDS011;29904;51.058;5.378;2022-09-27T03:45:26;3.15;;;1.10;;
44228;SDS011;29904;51.058;5.378;2022-09-27T03:47:52;5.10;;;1.40;;
44228;SDS011;29904;51.058;5.378;2022-09-27T03:50:19;5.18;;;1.40;;
44228;SDS011;29904;51.058;5.378;2022-09-27T03:52:45;2.60;;;1.30;;
44228;SDS011;29904;51.058;5.378;2022-09-27T03:55:11;2.50;;;1.30;;
44228;SDS011;29904;51.058;5.378;2022-09-27T03:57:38;4.72;;;1.50;;
44228;SDS011;29904;51.058;5.378;2022-09-27T04:00:04;5.30;;;1.53;;
44228;SDS011;29904;51.058;5.378;2022-09-27T04:02:31;3.70;;;1.30;;
44228;SDS011;29904;51.058;5.378;2022-09-27T04:04:56;4.72;;;1.17;;
44228;SDS011;29904;51.058;5.378;2022-09-27T04:07:22;2.88;;;1.05;;
44228;SDS011;29904;51.058;5.378;2022-09-27T04:09:48;2.40;;;1.00;;
44228;SDS011;29904;51.058;5.378;2022-09-27T04:12:14;2.00;;;0.90;;
44228;SDS011;29904;51.058;5.378;2022-09-27T04:14:40;1.90;;;0.70;;
44228;SDS011;29904;51.058;5.378;2022-09-27T04:17:06;2.35;;;0.82;;
44228;SDS011;29904;51.058;5.378;2022-09-27T04:19:31;1.70;;;0.60;;
44228;SDS011;29904;51.058;5.378;2022-09-27T04:21:57;2.93;;;0.70;;
44228;SDS011;29904;51.058;5.378;2022-09-27T04:24:23;1.03;;;0.50;;
44228;SDS011;29904;51.058;5.378;2022-09-27T04:26:49;2.13;;;0.50;;
44228;SDS011;29904;51.058;5.378;2022-09-27T04:29:15;1.25;;;0.50;;
44228;SDS011;29904;51.058;5.378;2022-09-27T04:31:43;2.33;;;0.40;;
44228;SDS011;29904;51.058;5.378;2022-09-27T04:34:08;2.08;;;0.28;;
44228;SDS011;29904;51.058;5.378;2022-09-27T04:36:34;1.42;;;0.47;;
44228;SDS011;29904;51.058;5.378;2022-09-27T04:39:03;1.92;;;0.40;;
44228;SDS011;29904;51.058;5.378;2022-09-27T04:41:32;1.40;;;0.40;;
44228;SDS011;29904;51.058;5.378;2022-09-27T04:43:59;2.95;;;0.30;;
44228;SDS011;29904;51.058;5.378;2022-09-27T04:46:26;2.55;;;0.40;;
44228;SDS011;29904;51.058;5.378;2022-09-27T04:48:56;2.50;;;0.30;;
44228;SDS011;29904;51.058;5.378;2022-09-27T04:51:23;0.63;;;0.30;;
44228;SDS011;29904;51.058;5.378;2022-09-27T04:53:51;2.83;;;0.40;;
44228;SDS011;29904;51.058;5.378;2022-09-27T04:56:17;1.10;;;0.30;;
44228;SDS011;29904;51.058;5.378;2022-09-27T04:58:43;1.67;;;0.40;;
44228;SDS011;29904;51.058;5.378;2022-09-27T05:01:08;2.40;;;0.30;;
44228;SDS011;29904;51.058;5.378;2022-09-27T05:03:34;0.93;;;0.30;;
44228;SDS011;29904;51.058;5.378;2022-09-27T05:06:00;2.17;;;0.30;;
44228;SDS011;29904;51.058;5.378;2022-09-27T05:08:26;2.87;;;0.30;;
44228;SDS011;29904;51.058;5.378;2022-09-27T05:10:54;2.33;;;0.30;;
44228;SDS011;29904;51.058;5.378;2022-09-27T05:13:20;0.73;;;0.20;;
44228;SDS011;29904;51.058;5.378;2022-09-27T05:15:46;1.40;;;0.30;;
44228;SDS011;29904;51.058;5.378;2022-09-27T05:18:12;4.45;;;0.40;;
44228;SDS011;29904;51.058;5.378;2022-09-27T05:20:38;1.67;;;0.30;;
44228;SDS011;29904;51.058;5.378;2022-09-27T05:23:04;0.80;;;0.20;;
44228;SDS011;29904;51.058;5.378;2022-09-27T05:25:30;1.35;;;0.20;;
44228;SDS011;29904;51.058;5.378;2022-09-27T05:27:57;0.93;;;0.25;;
44228;SDS011;29904;51.058;5.378;2022-09-27T05:30:23;1.20;;;0.20;;
44228;SDS011;29904;51.058;5.378;2022-09-27T05:32:50;1.10;;;0.25;;
44228;SDS011;29904;51.058;5.378;2022-09-27T05:35:16;0.93;;;0.20;;
44228;SDS011;29904;51.058;5.378;2022-09-27T05:37:43;1.33;;;0.20;;
44228;SDS011;29904;51.058;5.378;2022-09-27T05:40:15;2.20;;;0.30;;
44228;SDS011;29904;51.058;5.378;2022-09-27T05:42:41;2.42;;;0.30;;
44228;SDS011;29904;51.058;5.378;2022-09-27T05:45:07;1.50;;;0.30;;
44228;SDS011;29904;51.058;5.378;2022-09-27T05:47:33;0.60;;;0.20;;
44228;SDS011;29904;51.058;5.378;2022-09-27T05:50:01;1.58;;;0.35;;
44228;SDS011;29904;51.058;5.378;2022-09-27T05:52:29;1.02;;;0.20;;
44228;SDS011;29904;51.058;5.378;2022-09-27T05:54:55;1.73;;;0.50;;
44228;SDS011;29904;51.058;5.378;2022-09-27T05:57:21;2.40;;;0.30;;
44228;SDS011;29904;51.058;5.378;2022-09-27T05:59:47;1.17;;;0.30;;
44228;SDS011;29904;51.058;5.378;2022-09-27T06:02:13;1.40;;;0.40;;
44228;SDS011;29904;51.058;5.378;2022-09-27T06:04:39;1.53;;;0.40;;
44228;SDS011;29904;51.058;5.378;2022-09-27T06:07:05;2.20;;;0.40;;
44228;SDS011;29904;51.058;5.378;2022-09-27T06:09:31;1.92;;;0.25;;
44228;SDS011;29904;51.058;5.378;2022-09-27T06:11:56;0.83;;;0.33;;
44228;SDS011;29904;51.058;5.378;2022-09-27T06:14:23;1.67;;;0.43;;
44228;SDS011;29904;51.058;5.378;2022-09-27T06:16:51;1.55;;;0.50;;
44228;SDS011;29904;51.058;5.378;2022-09-27T06:19:19;2.00;;;0.47;;
44228;SDS011;29904;51.058;5.378;2022-09-27T06:21:48;2.35;;;0.50;;
44228;SDS011;29904;51.058;5.378;2022-09-27T06:24:14;1.88;;;0.60;;
44228;SDS011;29904;51.058;5.378;2022-09-27T06:26:40;1.80;;;0.60;;
44228;SDS011;29904;51.058;5.378;2022-09-27T06:29:06;1.20;;;0.60;;
44228;SDS011;29904;51.058;5.378;2022-09-27T06:31:32;3.37;;;0.90;;
44228;SDS011;29904;51.058;5.378;2022-09-27T06:33:58;2.93;;;0.90;;
44228;SDS011;29904;51.058;5.378;2022-09-27T06:36:23;2.78;;;1.00;;
44228;SDS011;29904;51.058;5.378;2022-09-27T06:38:53;3.22;;;0.93;;
44228;SDS011;29904;51.058;5.378;2022-09-27T06:41:18;2.60;;;0.80;;
44228;SDS011;29904;51.058;5.378;2022-09-27T06:43:47;3.45;;;1.10;;
44228;SDS011;29904;51.058;5.378;2022-09-27T06:46:13;3.53;;;1.30;;
44228;SDS011;29904;51.058;5.378;2022-09-27T06:48:39;3.15;;;1.05;;
44228;SDS011;29904;51.058;5.378;2022-09-27T06:51:06;2.25;;;1.20;;
44228;SDS011;29904;51.058;5.378;2022-09-27T06:53:32;3.20;;;1.30;;
44228;SDS011;29904;51.058;5.378;2022-09-27T06:55:58;4.50;;;1.17;;
44228;SDS011;29904;51.058;5.378;2022-09-27T06:58:29;4.53;;;1.30;;
44228;SDS011;29904;51.058;5.378;2022-09-27T07:01:13;4.15;;;1.50;;
44228;SDS011;29904;51.058;5.378;2022-09-27T07:03:39;4.40;;;1.50;;
44228;SDS011;29904;51.058;5.378;2022-09-27T07:06:16;3.40;;;1.60;;
44228;SDS011;29904;51.058;5.378;2022-09-27T07:08:51;2.85;;;1.30;;
44228;SDS011;29904;51.058;5.378;2022-09-27T07:11:19;2.03;;;1.17;;
44228;SDS011;29904;51.058;5.378;2022-09-27T07:13:46;3.97;;;1.10;;
44228;SDS011;29904;51.058;5.378;2022-09-27T07:16:12;3.47;;;1.20;;
44228;SDS011;29904;51.058;5.378;2022-09-27T07:18:39;5.38;;;1.40;;
44228;SDS011;29904;51.058;5.378;2022-09-27T07:21:05;3.58;;;1.40;;
44228;SDS011;29904;51.058;5.378;2022-09-27T07:23:32;2.65;;;1.23;;
44228;SDS011;29904;51.058;5.378;2022-09-27T07:26:02;7.38;;;1.63;;
44228;SDS011;29904;51.058;5.378;2022-09-27T07:28:30;3.13;;;1.40;;
44228;SDS011;29904;51.058;5.378;2022-09-27T07:30:56;3.70;;;1.57;;
44228;SDS011;29904;51.058;5.378;2022-09-27T07:33:22;4.17;;;1.60;;
44228;SDS011;29904;51.058;5.378;2022-09-27T07:35:48;2.80;;;1.40;;
44228;SDS011;29904;51.058;5.378;2022-09-27T07:38:14;4.00;;;1.60;;
44228;SDS011;29904;51.058;5.378;2022-09-27T07:40:40;2.55;;;1.40;;
44228;SDS011;29904;51.058;5.378;2022-09-27T07:43:06;5.90;;;1.63;;
44228;SDS011;29904;51.058;5.378;2022-09-27T07:45:34;2.42;;;1.63;;
44228;SDS011;29904;51.058;5.378;2022-09-27T07:48:03;4.38;;;1.60;;
44228;SDS011;29904;51.058;5.378;2022-09-27T07:50:32;3.50;;;1.90;;
44228;SDS011;29904;51.058;5.378;2022-09-27T07:52:59;2.00;;;1.50;;
44228;SDS011;29904;51.058;5.378;2022-09-27T07:55:24;4.97;;;1.70;;
44228;SDS011;29904;51.058;5.378;2022-09-27T07:57:50;3.13;;;1.60;;
44228;SDS011;29904;51.058;5.378;2022-09-27T08:00:17;2.40;;;1.40;;
44228;SDS011;29904;51.058;5.378;2022-09-27T08:02:44;2.78;;;1.80;;
44228;SDS011;29904;51.058;5.378;2022-09-27T08:05:10;2.85;;;1.52;;
44228;SDS011;29904;51.058;5.378;2022-09-27T08:07:37;4.68;;;1.80;;
44228;SDS011;29904;51.058;5.378;2022-09-27T08:10:08;3.70;;;2.20;;
44228;SDS011;29904;51.058;5.378;2022-09-27T08:12:34;3.67;;;1.85;;
44228;SDS011;29904;51.058;5.378;2022-09-27T08:15:00;3.53;;;1.88;;
44228;SDS011;29904;51.058;5.378;2022-09-27T08:17:29;3.90;;;1.98;;
44228;SDS011;29904;51.058;5.378;2022-09-27T08:19:56;3.70;;;2.00;;
44228;SDS011;29904;51.058;5.378;2022-09-27T08:22:22;4.72;;;2.30;;
44228;SDS011;29904;51.058;5.378;2022-09-27T08:24:48;4.72;;;2.08;;
44228;SDS011;29904;51.058;5.378;2022-09-27T08:27:15;3.75;;;1.90;;
44228;SDS011;29904;51.058;5.378;2022-09-27T08:29:41;4.05;;;2.10;;
44228;SDS011;29904;51.058;5.378;2022-09-27T08:32:09;2.97;;;1.80;;
44228;SDS011;29904;51.058;5.378;2022-09-27T08:34:36;3.63;;;1.95;;
44228;SDS011;29904;51.058;5.378;2022-09-27T08:37:02;3.20;;;1.70;;
44228;SDS011;29904;51.058;5.378;2022-09-27T08:39:30;2.83;;;1.90;;
44228;SDS011;29904;51.058;5.378;2022-09-27T08:47:28;3.63;;;2.20;;
44228;SDS011;29904;51.058;5.378;2022-09-27T08:50:07;4.50;;;2.10;;
44228;SDS011;29904;51.058;5.378;2022-09-27T08:52:38;3.17;;;1.95;;
44228;SDS011;29904;51.058;5.378;2022-09-27T08:57:56;3.75;;;2.00;;
44228;SDS011;29904;51.058;5.378;2022-09-27T09:00:23;3.90;;;2.25;;
44228;SDS011;29904;51.058;5.378;2022-09-27T09:02:49;4.03;;;2.03;;
44228;SDS011;29904;51.058;5.378;2022-09-27T09:05:23;5.13;;;2.20;;
44228;SDS011;29904;51.058;5.378;2022-09-27T09:10:53;3.13;;;2.15;;
44228;SDS011;29904;51.058;5.378;2022-09-27T09:16:28;3.70;;;2.40;;
44228;SDS011;29904;51.058;5.378;2022-09-27T09:35:38;6.07;;;2.70;;
44228;SDS011;29904;51.058;5.378;2022-09-27T09:38:10;2.97;;;2.05;;
44228;SDS011;29904;51.058;5.378;2022-09-27T09:40:42;3.08;;;2.10;;
44228;SDS011;29904;51.058;5.378;2022-09-27T09:43:48;5.78;;;2.53;;
44228;SDS011;29904;51.058;5.378;2022-09-27T09:46:40;5.47;;;2.13;;
44228;SDS011;29904;51.058;5.378;2022-09-27T09:52:10;3.55;;;2.10;;
44228;SDS011;29904;51.058;5.378;2022-09-27T09:54:49;3.28;;;2.30;;
44228;SDS011;29904;51.058;5.378;2022-09-27T10:00:27;2.88;;;2.17;;
44228;SDS011;29904;51.058;5.378;2022-09-27T10:02:54;3.80;;;1.98;;
44228;SDS011;29904;51.058;5.378;2022-09-27T10:05:22;5.43;;;2.35;;
44228;SDS011;29904;51.058;5.378;2022-09-27T10:07:50;4.03;;;2.15;;
44228;SDS011;29904;51.058;5.378;2022-09-27T10:10:19;3.25;;;1.92;;
44228;SDS011;29904;51.058;5.378;2022-09-27T10:12:45;3.92;;;1.80;;
44228;SDS011;29904;51.058;5.378;2022-09-27T10:15:27;3.60;;;1.70;;
44228;SDS011;29904;51.058;5.378;2022-09-27T10:17:55;3.38;;;1.80;;
44228;SDS011;29904;51.058;5.378;2022-09-27T10:20:36;3.75;;;1.80;;
44228;SDS011;29904;51.058;5.378;2022-09-27T10:23:12;2.40;;;1.20;;
44228;SDS011;29904;51.058;5.378;2022-09-27T10:28:25;2.40;;;1.00;;
44228;SDS011;29904;51.058;5.378;2022-09-27T10:31:08;1.20;;;0.80;;
44228;SDS011;29904;51.058;5.378;2022-09-27T10:33:37;1.65;;;0.82;;
44228;SDS011;29904;51.058;5.378;2022-09-27T10:36:26;3.40;;;1.20;;
44228;SDS011;29904;51.058;5.378;2022-09-27T10:38:55;2.20;;;0.80;;
44228;SDS011;29904;51.058;5.378;2022-09-27T10:41:25;2.63;;;0.97;;
44228;SDS011;29904;51.058;5.378;2022-09-27T10:43:56;3.35;;;1.17;;
44228;SDS011;29904;51.058;5.378;2022-09-27T10:46:43;4.00;;;1.20;;
44228;SDS011;29904;51.058;5.378;2022-09-27T10:49:18;2.88;;;0.90;;
44228;SDS011;29904;51.058;5.378;2022-09-27T10:51:50;3.65;;;1.30;;
44228;SDS011;29904;51.058;5.378;2022-09-27T10:54:19;4.35;;;1.40;;
44228;SDS011;29904;51.058;5.378;2022-09-27T10:56:53;2.88;;;0.90;;
44228;SDS011;29904;51.058;5.378;2022-09-27T10:59:43;1.77;;;0.50;;
44228;SDS011;29904;51.058;5.378;2022-09-27T11:02:22;1.10;;;0.40;;
44228;SDS011;29904;51.058;5.378;2022-09-27T11:05:02;0.60;;;0.30;;
44228;SDS011;29904;51.058;5.378;2022-09-27T11:07:30;0.75;;;0.30;;
44228;SDS011;29904;51.058;5.378;2022-09-27T11:09:56;0.57;;;0.30;;
44228;SDS011;29904;51.058;5.378;2022-09-27T11:12:29;0.57;;;0.20;;
44228;SDS011;29904;51.058;5.378;2022-09-27T11:15:00;1.20;;;0.20;;
44228;SDS011;29904;51.058;5.378;2022-09-27T11:18:15;0.65;;;0.30;;
44228;SDS011;29904;51.058;5.378;2022-09-27T11:20:23;1.40;;;0.40;;
44228;SDS011;29904;51.058;5.378;2022-09-27T11:26:27;2.45;;;0.40;;
44228;SDS011;29904;51.058;5.378;2022-09-27T11:29:00;0.93;;;0.20;;
44228;SDS011;29904;51.058;5.378;2022-09-27T11:31:53;0.43;;;0.30;;
44228;SDS011;29904;51.058;5.378;2022-09-27T11:37:34;0.85;;;0.40;;
44228;SDS011;29904;51.058;5.378;2022-09-27T11:57:17;0.80;;;0.47;;
44228;SDS011;29904;51.058;5.378;2022-09-27T12:08:21;2.05;;;0.63;;
44228;SDS011;29904;51.058;5.378;2022-09-27T12:11:03;2.70;;;0.68;;
44228;SDS011;29904;51.058;5.378;2022-09-27T12:16:41;3.60;;;1.45;;
44228;SDS011;29904;51.058;5.378;2022-09-27T12:19:12;1.83;;;1.00;;
44228;SDS011;29904;51.058;5.378;2022-09-27T12:21:43;1.88;;;0.90;;
44228;SDS011;29904;51.058;5.378;2022-09-27T12:24:14;1.50;;;0.80;;
44228;SDS011;29904;51.058;5.378;2022-09-27T12:26:44;2.75;;;0.88;;
44228;SDS011;29904;51.058;5.378;2022-09-27T12:29:18;3.30;;;0.90;;
44228;SDS011;29904;51.058;5.378;2022-09-27T12:40:24;2.08;;;1.13;;
44228;SDS011;29904;51.058;5.378;2022-09-27T12:43:06;1.98;;;0.90;;
44228;SDS011;29904;51.058;5.378;2022-09-27T12:45:50;2.60;;;1.30;;
44228;SDS011;29904;51.058;5.378;2022-09-27T12:48:43;4.53;;;1.30;;
44228;SDS011;29904;51.058;5.378;2022-09-27T12:51:13;3.83;;;1.20;;
44228;SDS011;29904;51.058;5.378;2022-09-27T12:53:57;3.20;;;1.20;;
44228;SDS011;29904;51.058;5.378;2022-09-27T12:57:00;3.20;;;1.20;;
44228;SDS011;29904;51.058;5.378;2022-09-27T13:02:30;2.97;;;1.20;;
44228;SDS011;29904;51.058;5.378;2022-09-27T13:13:22;2.10;;;0.80;;
44228;SDS011;29904;51.058;5.378;2022-09-27T13:15:52;3.88;;;1.08;;
44228;SDS011;29904;51.058;5.378;2022-09-27T13:21:05;1.67;;;0.68;;
44228;SDS011;29904;51.058;5.378;2022-09-27T13:26:02;3.60;;;0.90;;
44228;SDS011;29904;51.058;5.378;2022-09-27T13:30:56;3.40;;;0.90;;
44228;SDS011;29904;51.058;5.378;2022-09-27T13:39:35;3.50;;;0.90;;
44228;SDS011;29904;51.058;5.378;2022-09-27T13:50:11;2.30;;;0.73;;
44228;SDS011;29904;51.058;5.378;2022-09-27T13:52:42;2.55;;;0.70;;
44228;SDS011;29904;51.058;5.378;2022-09-27T14:01:08;3.00;;;0.67;;
44228;SDS011;29904;51.058;5.378;2022-09-27T14:03:41;2.60;;;0.60;;
44228;SDS011;29904;51.058;5.378;2022-09-27T14:06:10;3.50;;;0.80;;
44228;SDS011;29904;51.058;5.378;2022-09-27T14:08:50;1.92;;;0.70;;
44228;SDS011;29904;51.058;5.378;2022-09-27T14:11:37;2.17;;;0.80;;
44228;SDS011;29904;51.058;5.378;2022-09-27T14:14:05;1.42;;;0.65;;
44228;SDS011;29904;51.058;5.378;2022-09-27T14:16:39;1.75;;;0.80;;
44228;SDS011;29904;51.058;5.378;2022-09-27T14:19:19;2.10;;;0.80;;
44228;SDS011;29904;51.058;5.378;2022-09-27T14:21:47;1.02;;;0.50;;
44228;SDS011;29904;51.058;5.378;2022-09-27T14:29:55;4.40;;;0.90;;
44228;SDS011;29904;51.058;5.378;2022-09-27T14:32:27;2.45;;;0.90;;
44228;SDS011;29904;51.058;5.378;2022-09-27T14:35:06;3.17;;;0.90;;
44228;SDS011;29904;51.058;5.378;2022-09-27T14:37:59;3.13;;;0.95;;
44228;SDS011;29904;51.058;5.378;2022-09-27T14:40:27;3.65;;;0.95;;
44228;SDS011;29904;51.058;5.378;2022-09-27T14:42:57;2.17;;;0.90;;
44228;SDS011;29904;51.058;5.378;2022-09-27T14:48:17;3.00;;;1.00;;
44228;SDS011;29904;51.058;5.378;2022-09-27T14:50:53;3.20;;;1.13;;
44228;SDS011;29904;51.058;5.378;2022-09-27T14:53:25;3.97;;;1.23;;
44228;SDS011;29904;51.058;5.378;2022-09-27T14:55:53;4.60;;;1.50;;
44228;SDS011;29904;51.058;5.378;2022-09-27T14:58:22;2.92;;;1.20;;
44228;SDS011;29904;51.058;5.378;2022-09-27T15:00:49;4.60;;;1.43;;
44228;SDS011;29904;51.058;5.378;2022-09-27T15:03:18;3.90;;;1.33;;
44228;SDS011;29904;51.058;5.378;2022-09-27T15:05:50;5.22;;;2.30;;
44228;SDS011;29904;51.058;5.378;2022-09-27T15:08:17;3.65;;;1.30;;
44228;SDS011;29904;51.058;5.378;2022-09-27T15:10:44;4.53;;;1.17;;
44228;SDS011;29904;51.058;5.378;2022-09-27T15:13:12;3.57;;;1.10;;
44228;SDS011;29904;51.058;5.378;2022-09-27T15:15:40;2.97;;;1.00;;
44228;SDS011;29904;51.058;5.378;2022-09-27T15:21:04;4.87;;;1.10;;
44228;SDS011;29904;51.058;5.378;2022-09-27T15:23:41;4.43;;;1.60;;
44228;SDS011;29904;51.058;5.378;2022-09-27T15:28:48;3.58;;;1.45;;
44228;SDS011;29904;51.058;5.378;2022-09-27T15:31:28;5.03;;;1.80;;
44228;SDS011;29904;51.058;5.378;2022-09-27T15:33:55;8.15;;;3.30;;
44228;SDS011;29904;51.058;5.378;2022-09-27T15:36:48;6.10;;;2.90;;
44228;SDS011;29904;51.058;5.378;2022-09-27T15:39:34;5.45;;;3.08;;
44228;SDS011;29904;51.058;5.378;2022-09-27T15:44:37;6.82;;;2.60;;
44228;SDS011;29904;51.058;5.378;2022-09-27T15:52:41;3.75;;;1.50;;
44228;SDS011;29904;51.058;5.378;2022-09-27T15:55:11;5.72;;;2.20;;
44228;SDS011;29904;51.058;5.378;2022-09-27T15:58:11;3.95;;;1.70;;
44228;SDS011;29904;51.058;5.378;2022-09-27T16:03:19;5.95;;;1.48;;
44228;SDS011;29904;51.058;5.378;2022-09-27T16:05:45;3.92;;;1.55;;
44228;SDS011;29904;51.058;5.378;2022-09-27T16:08:11;4.87;;;2.00;;
44228;SDS011;29904;51.058;5.378;2022-09-27T16:10:40;3.13;;;1.63;;
44228;SDS011;29904;51.058;5.378;2022-09-27T16:13:09;3.50;;;1.35;;
44228;SDS011;29904;51.058;5.378;2022-09-27T16:15:35;3.57;;;1.20;;
44228;SDS011;29904;51.058;5.378;2022-09-27T16:18:03;2.78;;;1.30;;
44228;SDS011;29904;51.058;5.378;2022-09-27T16:20:29;2.92;;;1.40;;
44228;SDS011;29904;51.058;5.378;2022-09-27T16:22:56;5.10;;;2.03;;
44228;SDS011;29904;51.058;5.378;2022-09-27T16:25:22;5.28;;;2.10;;
44228;SDS011;29904;51.058;5.378;2022-09-27T16:27:49;4.85;;;1.63;;
44228;SDS011;29904;51.058;5.378;2022-09-27T16:30:15;4.57;;;1.30;;
44228;SDS011;29904;51.058;5.378;2022-09-27T16:32:45;4.35;;;1.02;;
44228;SDS011;29904;51.058;5.378;2022-09-27T16:35:12;2.38;;;0.90;;
44228;SDS011;29904;51.058;5.378;2022-09-27T16:37:39;4.22;;;1.50;;
44228;SDS011;29904;51.058;5.378;2022-09-27T16:40:06;4.78;;;1.70;;
44228;SDS011;29904;51.058;5.378;2022-09-27T16:42:33;4.85;;;2.30;;
44228;SDS011;29904;51.058;5.378;2022-09-27T16:44:59;4.70;;;2.00;;
44228;SDS011;29904;51.058;5.378;2022-09-27T16:47:28;4.87;;;1.70;;
44228;SDS011;29904;51.058;5.378;2022-09-27T16:49:54;3.40;;;1.48;;
44228;SDS011;29904;51.058;5.378;2022-09-27T16:52:39;2.97;;;1.60;;
44228;SDS011;29904;51.058;5.378;2022-09-27T16:55:06;4.90;;;1.90;;
44228;SDS011;29904;51.058;5.378;2022-09-27T16:57:32;4.07;;;1.90;;
44228;SDS011;29904;51.058;5.378;2022-09-27T17:00:02;4.78;;;2.20;;
44228;SDS011;29904;51.058;5.378;2022-09-27T17:02:30;5.53;;;2.10;;
44228;SDS011;29904;51.058;5.378;2022-09-27T17:04:56;5.03;;;1.90;;
44228;SDS011;29904;51.058;5.378;2022-09-27T17:07:22;6.93;;;2.00;;
44228;SDS011;29904;51.058;5.378;2022-09-27T17:09:50;7.80;;;2.10;;
44228;SDS011;29904;51.058;5.378;2022-09-27T17:12:15;5.87;;;1.97;;
44228;SDS011;29904;51.058;5.378;2022-09-27T17:14:41;3.33;;;1.65;;
44228;SDS011;29904;51.058;5.378;2022-09-27T17:17:09;2.58;;;1.00;;
44228;SDS011;29904;51.058;5.378;2022-09-27T17:19:36;4.10;;;1.17;;
44228;SDS011;29904;51.058;5.378;2022-09-27T17:22:03;2.47;;;1.00;;
44228;SDS011;29904;51.058;5.378;2022-09-27T17:24:31;4.30;;;1.35;;
44228;SDS011;29904;51.058;5.378;2022-09-27T17:26:57;3.42;;;1.20;;
44228;SDS011;29904;51.058;5.378;2022-09-27T17:29:23;2.78;;;1.30;;
44228;SDS011;29904;51.058;5.378;2022-09-27T17:31:49;5.35;;;1.58;;
44228;SDS011;29904;51.058;5.378;2022-09-27T17:34:14;4.07;;;1.40;;
44228;SDS011;29904;51.058;5.378;2022-09-27T17:36:41;2.90;;;1.47;;
44228;SDS011;29904;51.058;5.378;2022-09-27T17:39:16;3.42;;;1.45;;
44228;SDS011;29904;51.058;5.378;2022-09-27T17:41:43;3.08;;;1.60;;
44228;SDS011;29904;51.058;5.378;2022-09-27T17:44:10;3.60;;;1.50;;
44228;SDS011;29904;51.058;5.378;2022-09-27T17:46:37;3.75;;;1.80;;
44228;SDS011;29904;51.058;5.378;2022-09-27T17:49:05;4.03;;;1.80;;
44228;SDS011;29904;51.058;5.378;2022-09-27T17:51:51;5.03;;;1.80;;
44228;SDS011;29904;51.058;5.378;2022-09-27T17:54:18;4.75;;;2.20;;
44228;SDS011;29904;51.058;5.378;2022-09-27T17:56:46;5.53;;;2.65;;
44228;SDS011;29904;51.058;5.378;2022-09-27T17:59:14;5.00;;;2.42;;
44228;SDS011;29904;51.058;5.378;2022-09-27T18:01:41;6.40;;;2.80;;
44228;SDS011;29904;51.058;5.378;2022-09-27T18:04:08;4.90;;;2.20;;
44228;SDS011;29904;51.058;5.378;2022-09-27T18:06:43;6.45;;;2.95;;
44228;SDS011;29904;51.058;5.378;2022-09-27T18:09:11;4.35;;;2.40;;
44228;SDS011;29904;51.058;5.378;2022-09-27T18:11:38;6.50;;;2.50;;
44228;SDS011;29904;51.058;5.378;2022-09-27T18:14:05;5.90;;;3.20;;
44228;SDS011;29904;51.058;5.378;2022-09-27T18:16:33;4.60;;;2.37;;